Time;durP1;ratioP1;P1;durP2;ratioP2;P2;SDS_P1;SDS_P2;PMS_P1;PMS_P2;Temp;Humidity;BMP_temperature;BMP_pressure;BME280_temperature;BME280_humidity;BME280_pressure;Samples;Min_cycle;Max_cycle;Signal;HPM_P1;HPM_P2
2022/02/19 08:00:16;;;;;;;10.32;2.67;;;3.80;82.00;;;;;;5072496;28;20059;-75
2022/02/19 08:02:41;;;;;;;7.20;2.67;;;4.00;80.90;;;;;;5072060;28;20099;-75
2022/02/19 08:05:07;;;;;;;2.83;1.98;;;4.30;80.80;;;;;;5071876;28;20529;-75
2022/02/19 08:07:33;;;;;;;9.73;3.85;;;4.50;79.80;;;;;;5071713;28;20036;-74
2022/02/19 08:09:58;;;;;;;8.63;3.08;;;4.70;79.00;;;;;;5069073;28;20079;-74
2022/02/19 08:12:24;;;;;;;6.20;2.50;;;4.80;78.70;;;;;;5071987;28;20410;-77
2022/02/19 08:14:50;;;;;;;10.43;3.38;;;5.20;78.10;;;;;;5070414;28;20368;-74
2022/02/19 08:17:15;;;;;;;9.43;2.65;;;5.90;75.80;;;;;;5071984;28;20033;-75
2022/02/19 08:19:41;;;;;;;7.00;2.53;;;6.60;73.10;;;;;;5071734;28;20483;-75
2022/02/19 08:22:07;;;;;;;5.88;2.20;;;7.30;70.80;;;;;;5070742;28;20441;-75
2022/02/19 08:24:33;;;;;;;12.98;4.72;;;7.70;69.60;;;;;;5070071;28;20028;-75
2022/02/19 08:26:58;;;;;;;8.27;3.05;;;7.70;68.70;;;;;;5071189;28;20475;-75
2022/02/19 08:29:24;;;;;;;10.45;3.22;;;7.90;68.70;;;;;;5071388;28;20491;-75
2022/02/19 08:31:50;;;;;;;5.95;2.45;;;7.80;67.20;;;;;;5071297;28;20502;-76
2022/02/19 08:34:16;;;;;;;11.43;3.28;;;8.20;67.20;;;;;;5071255;28;20020;-76
2022/02/19 08:36:41;;;;;;;7.25;2.13;;;8.40;66.10;;;;;;5071102;28;20033;-76
2022/02/19 08:39:08;;;;;;;7.93;2.05;;;8.70;64.80;;;;;;5086601;28;20075;-88
2022/02/19 08:41:33;;;;;;;12.35;3.03;;;8.70;64.70;;;;;;5071442;28;20024;-75
2022/02/19 08:43:59;;;;;;;7.35;2.60;;;8.70;65.00;;;;;;5086792;28;20029;-74
2022/02/19 08:46:25;;;;;;;5.53;2.08;;;8.70;64.70;;;;;;5071448;28;20024;-74
2022/02/19 08:48:51;;;;;;;9.07;2.38;;;8.80;64.80;;;;;;5058862;28;20021;-76
2022/02/19 08:51:17;;;;;;;7.10;3.45;;;8.80;64.60;;;;;;5066738;28;20031;-75
2022/02/19 08:53:42;;;;;;;7.30;2.97;;;8.90;64.40;;;;;;5070916;28;20024;-75
2022/02/19 08:56:08;;;;;;;7.85;2.80;;;8.80;64.80;;;;;;5070944;28;20041;-77
2022/02/19 08:58:33;;;;;;;6.45;2.78;;;8.90;64.70;;;;;;5071211;28;20039;-83
2022/02/19 09:00:59;;;;;;;6.70;2.28;;;9.00;65.00;;;;;;5071035;28;20458;-77
2022/02/19 09:03:25;;;;;;;8.07;2.20;;;8.80;64.80;;;;;;5071000;28;20079;-80
2022/02/19 09:05:51;;;;;;;6.90;2.05;;;8.80;65.00;;;;;;5069073;28;20029;-86
2022/02/19 09:08:16;;;;;;;9.43;2.40;;;8.70;65.50;;;;;;5054941;28;20108;-78
2022/02/19 09:10:42;;;;;;;5.20;1.70;;;8.50;65.90;;;;;;5048148;28;20098;-78
2022/02/19 09:13:08;;;;;;;12.18;2.10;;;8.50;66.50;;;;;;5056765;28;20033;-77
2022/02/19 09:15:34;;;;;;;15.10;2.83;;;8.50;67.20;;;;;;5054690;28;20033;-77
2022/02/19 09:17:59;;;;;;;4.75;1.63;;;8.50;67.40;;;;;;5057197;28;20013;-78
2022/02/19 09:20:26;;;;;;;10.25;2.50;;;8.40;67.80;;;;;;5054412;28;20596;-77
2022/02/19 09:22:51;;;;;;;7.47;1.92;;;8.40;68.10;;;;;;5053227;28;20032;-77
2022/02/19 09:25:17;;;;;;;5.28;2.15;;;8.40;67.80;;;;;;5055728;28;20029;-78
2022/02/19 09:27:44;;;;;;;10.13;1.80;;;8.50;68.80;;;;;;5060015;28;20495;-78
2022/02/19 09:30:12;;;;;;;4.63;1.60;;;8.50;68.20;;;;;;5069757;28;20026;-78
2022/02/19 09:32:38;;;;;;;12.13;2.28;;;8.60;68.40;;;;;;5053945;28;20075;-78
2022/02/19 09:35:05;;;;;;;7.90;2.05;;;8.70;68.20;;;;;;5057103;28;20032;-77
2022/02/19 09:37:32;;;;;;;6.63;1.77;;;8.80;67.50;;;;;;5045841;28;20025;-77
2022/02/19 09:39:58;;;;;;;6.82;1.67;;;9.20;66.80;;;;;;5071862;28;20031;-78
2022/02/19 09:42:24;;;;;;;10.48;2.70;;;9.70;65.70;;;;;;5068840;28;20022;-78
2022/02/19 09:44:51;;;;;;;6.60;3.70;;;10.10;64.20;;;;;;5055716;28;20025;-78
2022/02/19 09:47:27;;;;;;;9.02;3.45;;;10.80;61.60;;;;;;5055823;28;20112;-78
2022/02/19 09:49:55;;;;;;;9.90;4.15;;;11.80;59.50;;;;;;5052131;28;20462;-78
2022/02/19 09:52:23;;;;;;;6.10;4.15;;;12.70;56.40;;;;;;5055852;28;20101;-78
2022/02/19 09:54:49;;;;;;;9.18;3.10;;;13.40;53.70;;;;;;5069050;28;21279;-78
2022/02/19 09:57:15;;;;;;;5.18;2.63;;;13.70;51.30;;;;;;5054785;28;20037;-78
2022/02/19 09:59:40;;;;;;;6.70;2.80;;;14.20;50.60;;;;;;5054248;28;20103;-78
2022/02/19 10:02:07;;;;;;;7.65;3.00;;;14.50;50.40;;;;;;5055333;28;20044;-78
2022/02/19 10:04:33;;;;;;;4.13;2.95;;;14.70;49.70;;;;;;5056313;28;20021;-78
2022/02/19 10:07:11;;;;;;;6.25;3.08;;;14.70;49.10;;;;;;5055751;28;20438;-78
2022/02/19 10:09:49;;;;;;;8.32;2.90;;;14.80;49.60;;;;;;5047232;28;20025;-78
2022/02/19 10:12:16;;;;;;;6.00;2.65;;;14.00;48.60;;;;;;5054185;28;20054;-85
2022/02/19 10:14:46;;;;;;;8.43;3.08;;;13.90;50.20;;;;;;5067968;28;20490;-84
2022/02/19 10:17:18;;;;;;;9.68;3.40;;;13.50;50.50;;;;;;5053544;28;20059;-85
2022/02/19 10:20:02;;;;;;;7.15;2.75;;;13.50;52.20;;;;;;5070186;28;20132;-84
2022/02/19 10:22:40;;;;;;;6.63;1.20;;;13.40;52.50;;;;;;5053270;28;20024;-85
2022/02/19 10:25:21;;;;;;;3.78;1.08;;;13.00;53.00;;;;;;5055714;28;20089;-85
2022/02/19 10:27:51;;;;;;;5.57;1.23;;;12.60;54.20;;;;;;5056030;28;20027;-83
2022/02/19 10:30:19;;;;;;;8.23;1.30;;;12.20;55.50;;;;;;5055960;28;20025;-80
2022/02/19 10:32:56;;;;;;;2.72;1.20;;;12.00;57.30;;;;;;5070894;28;20509;-78
2022/02/19 10:35:38;;;;;;;5.18;2.13;;;11.80;58.80;;;;;;5055886;28;20112;-78
2022/02/19 10:38:16;;;;;;;4.82;1.50;;;11.50;59.30;;;;;;5071741;28;20039;-82
2022/02/19 10:40:43;;;;;;;5.55;1.65;;;11.40;59.80;;;;;;5056578;28;20067;-85
2022/02/19 10:43:19;;;;;;;8.98;1.90;;;11.20;60.00;;;;;;5056131;28;20391;-88
2022/02/19 10:46:02;;;;;;;6.55;1.63;;;11.20;60.40;;;;;;5056446;28;20029;-85
2022/02/19 10:48:36;;;;;;;6.85;1.60;;;11.10;61.30;;;;;;5056107;28;20119;-83
2022/02/19 10:51:13;;;;;;;10.02;1.48;;;11.10;61.50;;;;;;5055717;28;20396;-86
2022/02/19 10:53:43;;;;;;;5.63;1.27;;;11.20;62.10;;;;;;5071058;28;20029;-85
2022/02/19 10:56:11;;;;;;;5.43;1.33;;;11.20;61.70;;;;;;5055278;28;20056;-82
2022/02/19 10:58:37;;;;;;;7.75;1.70;;;11.10;62.40;;;;;;5054362;28;20037;-82
2022/02/19 11:01:18;;;;;;;5.32;1.42;;;11.00;62.30;;;;;;5055847;28;20032;-85
2022/02/19 11:03:45;;;;;;;4.45;1.38;;;11.10;61.70;;;;;;5070623;28;20032;-85
2022/02/19 11:06:11;;;;;;;12.23;1.55;;;11.20;62.70;;;;;;5055321;28;20563;-85
2022/02/19 11:08:37;;;;;;;4.35;1.20;;;11.20;61.90;;;;;;5055575;28;20040;-85
2022/02/19 11:11:03;;;;;;;6.55;2.08;;;11.30;61.80;;;;;;5055145;28;20025;-84
2022/02/19 11:13:29;;;;;;;7.35;1.25;;;11.30;61.90;;;;;;5070983;28;20526;-85
2022/02/19 11:15:55;;;;;;;3.03;1.02;;;11.30;62.40;;;;;;5055645;28;20036;-86
2022/02/19 11:18:22;;;;;;;4.53;1.67;;;11.30;62.30;;;;;;5053881;28;20036;-85
2022/02/19 11:20:50;;;;;;;3.72;1.00;;;11.40;62.20;;;;;;5055568;28;20082;-86
2022/02/19 11:23:17;;;;;;;5.50;1.30;;;11.40;61.70;;;;;;5055280;28;20037;-86
2022/02/19 11:25:45;;;;;;;2.45;1.20;;;11.30;61.60;;;;;;5054634;28;20033;-86
2022/02/19 11:28:13;;;;;;;4.18;1.55;;;11.50;62.90;;;;;;5055099;28;20056;-86
2022/02/19 11:30:46;;;;;;;5.72;1.63;;;11.70;62.80;;;;;;5055383;28;20059;-87
2022/02/19 11:33:14;;;;;;;4.57;1.23;;;11.80;61.70;;;;;;5054972;28;20036;-86
2022/02/19 11:35:42;;;;;;;5.63;1.17;;;11.90;62.20;;;;;;5055233;28;20036;-84
2022/02/19 11:38:30;;;;;;;7.20;1.50;;;11.90;61.30;;;;;;5070648;28;20446;-83
2022/02/19 11:41:00;;;;;;;3.25;1.23;;;11.90;61.70;;;;;;5070586;28;20112;-82
2022/02/19 11:43:42;;;;;;;5.03;1.10;;;12.00;60.80;;;;;;5051078;28;20495;-89
2022/02/19 11:46:30;;;;;;;2.97;1.33;;;12.20;60.20;;;;;;5068042;28;20033;-85
2022/02/19 11:48:56;;;;;;;2.95;1.00;;;12.40;61.00;;;;;;5051335;28;20049;-85
2022/02/19 11:51:24;;;;;;;4.15;1.55;;;12.30;59.10;;;;;;5054640;28;20032;-87
2022/02/19 11:53:52;;;;;;;18.23;7.18;;;12.20;59.80;;;;;;5056623;28;20032;-90
2022/02/19 11:56:27;;;;;;;4.95;1.40;;;12.10;59.70;;;;;;5054364;28;20055;-88
2022/02/19 11:58:55;;;;;;;3.00;1.02;;;12.10;59.30;;;;;;5050430;28;20029;-83
2022/02/19 12:01:21;;;;;;;7.45;1.30;;;12.00;58.20;;;;;;5054830;28;20087;-86
2022/02/19 12:03:47;;;;;;;2.80;1.20;;;11.90;58.20;;;;;;5069799;28;20563;-85
2022/02/19 12:06:15;;;;;;;3.45;0.90;;;12.00;57.70;;;;;;5054304;28;20087;-83
2022/02/19 12:08:47;;;;;;;5.00;1.30;;;12.20;57.90;;;;;;5053901;28;20526;-89
2022/02/19 12:11:13;;;;;;;5.80;1.20;;;12.30;57.40;;;;;;5054735;28;20402;-85
2022/02/19 12:13:48;;;;;;;3.45;1.00;;;12.30;58.00;;;;;;5054210;28;20029;-84
2022/02/19 12:18:57;;;;;;;4.65;1.30;;;12.80;58.20;;;;;;5050366;28;20104;-79
2022/02/19 12:21:43;;;;;;;4.43;0.95;;;12.90;58.30;;;;;;5061728;28;20569;-88
2022/02/19 12:24:16;;;;;;;5.78;1.13;;;13.20;57.00;;;;;;5054030;28;20475;-90
2022/02/19 12:26:54;;;;;;;6.20;1.15;;;13.30;56.10;;;;;;5054407;28;20498;-78
2022/02/19 12:29:31;;;;;;;3.45;1.23;;;13.30;55.20;;;;;;5063985;28;20041;-78
2022/02/19 12:32:14;;;;;;;3.67;0.95;;;13.20;54.90;;;;;;5050824;28;20055;-79
2022/02/19 12:34:47;;;;;;;5.18;0.80;;;13.20;54.80;;;;;;5051135;28;20025;-81
2022/02/19 12:37:13;;;;;;;3.33;1.10;;;13.40;55.70;;;;;;5066682;28;20048;-81
2022/02/19 12:39:43;;;;;;;3.22;1.00;;;13.30;55.10;;;;;;5066939;28;20051;-81
2022/02/19 12:42:15;;;;;;;5.70;1.15;;;13.30;54.90;;;;;;5053500;28;20021;-80
2022/02/19 12:44:41;;;;;;;5.95;1.60;;;13.30;53.60;;;;;;5056505;28;20041;-80
2022/02/19 12:47:08;;;;;;;3.70;1.20;;;13.30;54.40;;;;;;5054735;28;20576;-81
2022/02/19 12:49:34;;;;;;;4.13;1.00;;;13.30;53.00;;;;;;5058281;28;20040;-80
2022/02/19 12:52:02;;;;;;;2.67;1.17;;;13.20;53.30;;;;;;5055977;28;20045;-81
2022/02/19 12:54:37;;;;;;;4.90;1.20;;;13.10;53.60;;;;;;5054854;28;20025;-81
2022/02/19 12:57:04;;;;;;;10.45;2.03;;;13.00;54.60;;;;;;5055105;28;20542;-81
2022/02/19 12:59:35;;;;;;;3.15;1.05;;;12.90;54.70;;;;;;5055002;28;20024;-81
2022/02/19 13:02:03;;;;;;;3.58;0.95;;;13.00;55.30;;;;;;5054899;28;20044;-82
2022/02/19 13:04:32;;;;;;;7.55;1.23;;;12.80;55.30;;;;;;5055665;28;20082;-82
2022/02/19 13:06:59;;;;;;;2.95;0.95;;;12.90;54.30;;;;;;5052352;28;20056;-82
2022/02/19 13:09:27;;;;;;;3.25;1.08;;;13.00;53.40;;;;;;5054619;28;20033;-82
2022/02/19 13:11:54;;;;;;;8.10;1.48;;;13.20;52.60;;;;;;5054742;28;20029;-82
2022/02/19 13:14:22;;;;;;;6.43;1.10;;;13.00;51.40;;;;;;5045882;28;20017;-82
2022/02/19 13:17:04;;;;;;;4.68;1.13;;;12.80;52.30;;;;;;5057880;28;20033;-82
2022/02/19 13:19:33;;;;;;;2.28;0.82;;;12.80;52.00;;;;;;5055703;28;20051;-82
2022/02/19 13:22:23;;;;;;;7.03;1.58;;;12.80;53.10;;;;;;5037303;28;20093;-82
2022/02/19 13:24:51;;;;;;;1.58;0.63;;;12.90;52.50;;;;;;5040944;28;20045;-82
2022/02/19 13:27:19;;;;;;;1.67;0.70;;;12.80;53.50;;;;;;5045214;28;20669;-82
2022/02/19 13:29:50;;;;;;;6.78;1.67;;;12.80;53.50;;;;;;5051312;28;20021;-81
2022/02/19 13:32:23;;;;;;;3.83;1.00;;;12.90;52.90;;;;;;5053876;28;20091;-81
2022/02/19 13:34:50;;;;;;;4.88;1.00;;;13.00;52.40;;;;;;5056194;28;20629;-81
2022/02/19 13:37:16;;;;;;;4.28;1.55;;;13.00;52.80;;;;;;5056675;28;20049;-80
2022/02/19 13:39:43;;;;;;;5.18;1.60;;;13.10;53.30;;;;;;5055809;28;20464;-80
2022/02/19 13:42:09;;;;;;;6.38;1.17;;;13.30;52.90;;;;;;5071840;28;20028;-81
2022/02/19 13:44:52;;;;;;;2.88;0.85;;;13.50;53.70;;;;;;5045933;28;20380;-81
2022/02/19 13:47:19;;;;;;;4.45;0.98;;;13.50;52.60;;;;;;5048252;28;20021;-82
2022/02/19 13:49:49;;;;;;;5.22;1.35;;;13.70;53.10;;;;;;5037342;28;20034;-82
2022/02/19 13:52:29;;;;;;;7.18;1.00;;;13.60;52.60;;;;;;5043674;28;20051;-82
2022/02/19 13:55:09;;;;;;;2.75;0.93;;;13.60;52.60;;;;;;5072133;28;20031;-83
2022/02/19 13:57:35;;;;;;;;;;;13.70;52.40;;;;;;5055519;28;20427;-82
2022/02/19 14:00:08;;;;;;;5.60;1.15;;;13.60;52.70;;;;;;5053971;28;19919;-83
2022/02/19 14:02:33;;;;;;;5.18;1.05;;;13.50;52.40;;;;;;5044689;28;20411;-83
2022/02/19 14:05:02;;;;;;;5.50;1.10;;;13.40;52.50;;;;;;5054899;28;20021;-82
2022/02/19 14:07:29;;;;;;;3.80;1.08;;;13.20;52.90;;;;;;5067733;28;20083;-82
2022/02/19 14:10:09;;;;;;;4.32;1.05;;;13.30;54.00;;;;;;5071200;28;20032;-82
2022/02/19 14:12:39;;;;;;;7.28;0.93;;;13.40;54.50;;;;;;5051732;28;20079;-82
2022/02/19 14:15:07;;;;;;;5.10;1.25;;;13.40;54.20;;;;;;5055858;28;20035;-83
2022/02/19 14:17:42;;;;;;;2.92;0.90;;;13.20;53.20;;;;;;5070743;28;20537;-83
2022/02/19 14:20:10;;;;;;;7.32;1.33;;;13.20;53.60;;;;;;5071333;28;20028;-82
2022/02/19 14:22:43;;;;;;;7.00;1.23;;;13.30;53.70;;;;;;5070777;28;20116;-83
2022/02/19 14:25:16;;;;;;;7.95;1.00;;;13.30;53.90;;;;;;5034567;28;20115;-83
2022/02/19 14:27:57;;;;;;;5.35;1.20;;;13.30;54.60;;;;;;5055085;28;20028;-82
2022/02/19 14:30:36;;;;;;;5.80;1.48;;;13.40;53.60;;;;;;5055085;28;20491;-82
2022/02/19 14:33:05;;;;;;;4.38;1.48;;;13.80;53.30;;;;;;5055282;28;20052;-82
2022/02/19 14:35:31;;;;;;;10.73;1.85;;;13.90;53.10;;;;;;5056211;28;20033;-82
2022/02/19 14:37:57;;;;;;;6.88;1.45;;;14.10;54.00;;;;;;5055203;28;20035;-82
2022/02/19 14:40:23;;;;;;;3.03;0.77;;;14.00;53.30;;;;;;5055642;28;20021;-82
2022/02/19 14:42:50;;;;;;;9.25;1.50;;;13.90;53.60;;;;;;5056137;28;20036;-83
2022/02/19 14:45:16;;;;;;;7.70;1.30;;;13.70;53.60;;;;;;5054205;28;20033;-82
2022/02/19 14:47:43;;;;;;;4.53;1.05;;;13.70;54.20;;;;;;5056002;28;20025;-82
2022/02/19 14:50:09;;;;;;;8.18;1.48;;;13.40;54.80;;;;;;5071042;28;20028;-82
2022/02/19 14:52:36;;;;;;;7.70;1.20;;;13.50;54.50;;;;;;5054455;28;20438;-82
2022/02/19 14:55:03;;;;;;;8.90;1.42;;;13.30;54.90;;;;;;5055101;28;20039;-82
2022/02/19 14:57:31;;;;;;;9.20;1.33;;;13.20;55.50;;;;;;5054858;28;20433;-81
2022/02/19 14:59:57;;;;;;;4.55;1.25;;;13.10;55.30;;;;;;5055187;28;20028;-81
2022/02/19 15:02:24;;;;;;;9.02;1.65;;;13.00;56.50;;;;;;5056100;28;20033;-82
2022/02/19 15:04:50;;;;;;;4.78;1.50;;;12.90;57.40;;;;;;5050178;28;20024;-82
2022/02/19 15:07:16;;;;;;;4.10;0.90;;;12.80;57.70;;;;;;5051637;28;20483;-84
2022/02/19 15:09:41;;;;;;;3.88;0.90;;;12.70;58.10;;;;;;5070102;28;20017;-84
2022/02/19 15:12:10;;;;;;;8.30;1.33;;;12.60;58.40;;;;;;5055178;28;20407;-82
2022/02/19 15:14:40;;;;;;;4.35;1.10;;;12.30;58.80;;;;;;5067041;28;20026;-81
2022/02/19 15:17:07;;;;;;;4.18;1.65;;;12.20;58.20;;;;;;5053352;28;20037;-85
2022/02/19 15:19:33;;;;;;;6.80;1.75;;;12.20;58.50;;;;;;5054788;28;20097;-83
2022/02/19 15:22:00;;;;;;;8.30;1.52;;;12.20;58.20;;;;;;5053768;28;20051;-84
2022/02/19 15:24:26;;;;;;;3.72;0.90;;;12.20;58.40;;;;;;5070015;28;20056;-83
2022/02/19 15:26:52;;;;;;;4.93;1.00;;;12.10;59.00;;;;;;5054410;28;20036;-85
2022/02/19 15:29:18;;;;;;;9.45;1.92;;;12.20;59.40;;;;;;5070932;28;20516;-82
2022/02/19 15:31:43;;;;;;;7.93;1.50;;;12.20;58.80;;;;;;5054500;28;20031;-84
2022/02/19 15:34:09;;;;;;;7.60;1.85;;;12.20;58.80;;;;;;5055223;28;20032;-87
2022/02/19 15:36:35;;;;;;;6.05;1.35;;;12.20;58.60;;;;;;5054631;28;20120;-87
2022/02/19 15:39:02;;;;;;;5.00;1.23;;;12.30;59.40;;;;;;5055525;28;20546;-88
2022/02/19 15:41:28;;;;;;;3.55;1.30;;;12.20;59.30;;;;;;5070014;28;20029;-91
2022/02/19 15:43:55;;;;;;;5.70;1.30;;;12.20;59.40;;;;;;5092327;28;20417;-84
2022/02/19 15:46:25;;;;;;;6.45;1.27;;;12.10;59.50;;;;;;5062133;28;20116;-88
2022/02/19 15:48:51;;;;;;;7.25;1.27;;;12.00;60.10;;;;;;5045634;28;20023;-88
2022/02/19 15:51:18;;;;;;;10.80;1.70;;;12.10;60.50;;;;;;5055102;28;20025;-92
2022/02/19 15:53:44;;;;;;;5.80;1.17;;;11.90;60.80;;;;;;5069411;28;20064;-81
2022/02/19 15:56:10;;;;;;;3.20;1.40;;;11.90;61.00;;;;;;5046659;28;20045;-85
2022/02/19 15:58:36;;;;;;;3.65;1.05;;;11.80;61.60;;;;;;5049776;28;20457;-80
2022/02/19 16:01:03;;;;;;;4.25;1.33;;;11.80;62.00;;;;;;5064639;28;20025;-79
2022/02/19 16:03:30;;;;;;;5.50;1.48;;;11.70;63.00;;;;;;5051491;28;20063;-80
2022/02/19 16:05:57;;;;;;;3.60;1.20;;;11.70;64.30;;;;;;5052708;28;20037;-89
2022/02/19 16:08:25;;;;;;;7.70;2.45;;;11.60;66.20;;;;;;5052713;28;20521;-78
2022/02/19 16:10:52;;;;;;;4.82;1.52;;;11.60;67.00;;;;;;5052559;28;20053;-82
2022/02/19 16:13:18;;;;;;;4.97;2.30;;;11.50;66.50;;;;;;5052859;28;20697;-80
2022/02/19 16:15:44;;;;;;;3.38;1.33;;;11.40;66.50;;;;;;5053932;28;20033;-84
2022/02/19 16:18:10;;;;;;;3.63;1.40;;;11.30;67.00;;;;;;5056801;28;20037;-80
2022/02/19 16:20:36;;;;;;;5.15;1.77;;;11.30;67.20;;;;;;5058302;28;20112;-81
2022/02/19 16:23:02;;;;;;;3.03;1.10;;;11.20;67.50;;;;;;5058653;28;20855;-80
2022/02/19 16:25:29;;;;;;;10.50;1.88;;;11.30;67.10;;;;;;5058327;28;20029;-89
2022/02/19 16:27:55;;;;;;;3.63;1.40;;;11.30;67.50;;;;;;5058352;28;20510;-85
2022/02/19 16:30:21;;;;;;;2.95;1.48;;;11.40;66.50;;;;;;5058680;28;20518;-85
2022/02/19 16:32:47;;;;;;;2.85;1.73;;;11.30;66.60;;;;;;5057075;28;20061;-85
2022/02/19 16:35:13;;;;;;;8.07;1.45;;;11.30;66.20;;;;;;5058439;28;20108;-85
2022/02/19 16:37:39;;;;;;;4.80;1.42;;;11.30;66.50;;;;;;5058205;28;20021;-79
2022/02/19 16:40:07;;;;;;;9.93;2.05;;;11.40;66.30;;;;;;5058213;28;20037;-88
2022/02/19 16:42:33;;;;;;;6.07;1.50;;;11.30;66.60;;;;;;5053634;28;20025;-82
2022/02/19 16:44:59;;;;;;;5.55;2.10;;;11.30;66.90;;;;;;5053961;28;20033;-86
2022/02/19 16:47:25;;;;;;;5.05;1.70;;;11.30;66.80;;;;;;5074005;28;20041;-85
2022/02/19 16:49:51;;;;;;;8.90;1.52;;;11.30;66.90;;;;;;5058080;28;20123;-84
2022/02/19 16:52:17;;;;;;;5.70;1.23;;;11.30;67.60;;;;;;5058367;28;20028;-91
2022/02/19 16:54:44;;;;;;;12.70;1.40;;;11.20;68.30;;;;;;5059528;28;20025;-87
2022/02/19 16:57:10;;;;;;;5.05;1.60;;;11.20;68.50;;;;;;5056789;28;20048;-92
2022/02/19 16:59:36;;;;;;;2.38;1.10;;;11.20;68.40;;;;;;5057540;28;20029;-85
2022/02/19 17:02:02;;;;;;;8.68;1.20;;;11.10;68.50;;;;;;5043281;28;20104;-91
2022/02/19 17:04:27;;;;;;;5.05;1.15;;;11.00;68.50;;;;;;5054846;28;20067;-87
2022/02/19 17:06:56;;;;;;;5.55;1.70;;;10.90;68.80;;;;;;5070940;28;20546;-90
2022/02/19 17:09:21;;;;;;;5.38;1.13;;;11.00;69.10;;;;;;5040007;28;20037;-91
2022/02/19 17:11:47;;;;;;;8.95;2.08;;;11.00;69.20;;;;;;5043105;28;20030;-88
2022/02/19 17:14:13;;;;;;;4.97;1.10;;;11.00;69.00;;;;;;5047377;28;20083;-86
2022/02/19 17:16:39;;;;;;;2.83;1.13;;;10.90;69.60;;;;;;5058605;28;20630;-83
2022/02/19 17:19:05;;;;;;;8.27;1.75;;;11.00;69.50;;;;;;5057950;28;20033;-84
2022/02/19 17:21:31;;;;;;;6.45;2.05;;;10.90;69.70;;;;;;5057526;28;20044;-87
2022/02/19 17:23:57;;;;;;;6.40;1.50;;;10.90;69.70;;;;;;5057759;28;20108;-89
2022/02/19 17:26:24;;;;;;;4.03;1.33;;;10.90;69.80;;;;;;5056669;28;20396;-86
2022/02/19 17:28:51;;;;;;;8.57;1.38;;;10.80;70.10;;;;;;5056639;28;20045;-87
2022/02/19 17:31:23;;;;;;;7.32;1.58;;;10.70;71.00;;;;;;5050178;28;20017;-87
2022/02/19 17:33:49;;;;;;;3.47;1.30;;;10.80;71.20;;;;;;5055499;28;20035;-89
2022/02/19 17:36:16;;;;;;;4.30;1.40;;;10.80;71.20;;;;;;5056689;28;20037;-84
2022/02/19 17:38:41;;;;;;;4.78;1.73;;;10.80;71.80;;;;;;5056506;28;20106;-83
2022/02/19 17:41:07;;;;;;;4.00;1.30;;;10.70;72.80;;;;;;5071087;28;20481;-86
2022/02/19 17:43:34;;;;;;;3.60;1.42;;;10.60;73.70;;;;;;5055322;28;20114;-80
2022/02/19 17:46:00;;;;;;;3.50;1.23;;;10.60;74.30;;;;;;5056287;28;20059;-80
2022/02/19 17:48:27;;;;;;;2.97;1.25;;;10.70;74.20;;;;;;5054594;28;20029;-76
2022/02/19 17:50:52;;;;;;;8.43;1.40;;;10.70;74.10;;;;;;5071556;28;20022;-78
2022/02/19 17:53:19;;;;;;;5.32;1.40;;;10.70;74.60;;;;;;5044117;28;20036;-79
2022/02/19 17:55:45;;;;;;;6.75;1.20;;;10.60;75.50;;;;;;5053973;28;20044;-78
2022/02/19 17:58:12;;;;;;;2.95;0.95;;;10.60;76.20;;;;;;5055258;28;20025;-78
2022/02/19 18:00:38;;;;;;;4.50;1.35;;;10.50;76.80;;;;;;5055824;28;20025;-80
2022/02/19 18:03:04;;;;;;;4.82;1.40;;;10.50;77.50;;;;;;5055329;28;20029;-80
2022/02/19 18:05:30;;;;;;;3.45;1.90;;;10.50;77.70;;;;;;5055529;28;20029;-77
2022/02/19 18:07:56;;;;;;;6.28;1.45;;;10.50;77.70;;;;;;5055647;28;20035;-78
2022/02/19 18:10:22;;;;;;;7.60;2.08;;;10.50;77.80;;;;;;5056189;28;20238;-82
2022/02/19 18:12:48;;;;;;;5.55;1.45;;;10.60;77.70;;;;;;5055817;28;20032;-80
2022/02/19 18:15:14;;;;;;;3.00;1.33;;;10.50;78.30;;;;;;5056366;28;20021;-81
2022/02/19 18:17:41;;;;;;;5.95;1.17;;;10.40;79.10;;;;;;5072171;28;20128;-82
2022/02/19 18:20:09;;;;;;;6.30;1.90;;;10.30;80.20;;;;;;5056481;28;20415;-79
2022/02/19 18:22:35;;;;;;;4.47;1.80;;;10.30;80.30;;;;;;5046928;28;20045;-84
2022/02/19 18:25:00;;;;;;;3.00;1.52;;;10.20;80.90;;;;;;5044450;22;20057;-81
2022/02/19 18:27:27;;;;;;;3.90;1.83;;;10.30;81.00;;;;;;5044070;28;20543;-86
2022/02/19 18:29:52;;;;;;;4.65;2.10;;;10.20;81.60;;;;;;5039653;28;20049;-82
2022/02/19 18:32:19;;;;;;;7.25;1.70;;;10.10;82.10;;;;;;5073297;28;20020;-88
2022/02/19 18:34:45;;;;;;;2.55;1.30;;;10.20;82.10;;;;;;5075594;28;20044;-82
2022/02/19 18:37:11;;;;;;;6.60;1.63;;;10.30;81.90;;;;;;5036535;28;20068;-82
2022/02/19 18:39:37;;;;;;;3.20;1.35;;;10.30;81.90;;;;;;5055836;28;20044;-86
2022/02/19 18:42:04;;;;;;;2.70;1.15;;;10.30;82.40;;;;;;5028005;28;20029;-78
2022/02/19 18:44:30;;;;;;;4.07;1.75;;;10.30;82.20;;;;;;5069771;28;20507;-78
2022/02/19 18:46:56;;;;;;;4.65;1.50;;;10.30;81.80;;;;;;5047417;28;20041;-81
2022/02/19 18:49:21;;;;;;;3.60;1.67;;;10.30;81.90;;;;;;5032283;28;20037;-79
2022/02/19 18:51:48;;;;;;;3.65;1.67;;;10.30;82.30;;;;;;5030842;28;20064;-81
2022/02/19 18:54:14;;;;;;;2.30;1.20;;;10.30;82.20;;;;;;5043894;28;20080;-79
2022/02/19 18:56:40;;;;;;;2.58;1.33;;;10.40;81.90;;;;;;5040727;28;20625;-80
2022/02/19 18:59:06;;;;;;;3.20;1.67;;;10.50;81.90;;;;;;5049243;28;20060;-81
2022/02/19 19:01:33;;;;;;;5.60;1.40;;;10.50;82.00;;;;;;5030804;28;20051;-80
2022/02/19 19:03:59;;;;;;;4.28;1.58;;;10.50;82.10;;;;;;5035858;28;20079;-77
2022/02/19 19:06:25;;;;;;;4.95;1.75;;;10.40;82.20;;;;;;5063633;22;20076;-77
2022/02/19 19:08:51;;;;;;;4.30;1.90;;;10.40;82.40;;;;;;5070854;28;20107;-78
2022/02/19 19:11:16;;;;;;;5.78;2.00;;;10.40;82.30;;;;;;5068625;28;20036;-78
2022/02/19 19:13:43;;;;;;;4.00;2.85;;;10.60;82.10;;;;;;5062170;28;20033;-76
2022/02/19 19:16:12;;;;;;;2.88;1.55;;;10.50;82.10;;;;;;5067689;28;20043;-80
2022/02/19 19:18:38;;;;;;;5.40;2.53;;;10.60;81.90;;;;;;5068820;28;20025;-83
2022/02/19 19:21:04;;;;;;;5.18;1.90;;;10.50;82.20;;;;;;5067008;28;20032;-79
2022/02/19 19:23:30;;;;;;;4.35;2.05;;;10.40;82.30;;;;;;5066172;28;20524;-86
2022/02/19 19:25:56;;;;;;;6.38;2.00;;;10.60;82.00;;;;;;5066770;28;20071;-83
2022/02/19 19:28:22;;;;;;;4.40;2.13;;;10.60;81.80;;;;;;5089754;28;20121;-78
2022/02/19 19:30:47;;;;;;;4.43;2.10;;;10.70;81.70;;;;;;5071013;28;20035;-79
2022/02/19 19:33:13;;;;;;;4.85;1.83;;;10.60;81.80;;;;;;5065799;28;20025;-78
2022/02/19 19:35:42;;;;;;;3.88;1.90;;;10.70;81.80;;;;;;5076249;28;20039;-80
2022/02/19 19:38:08;;;;;;;7.68;3.42;;;10.60;81.70;;;;;;5071085;28;20056;-80
2022/02/19 19:40:34;;;;;;;5.35;2.35;;;10.60;81.80;;;;;;5062697;28;20513;-82
2022/02/19 19:43:02;;;;;;;6.30;2.75;;;10.60;82.10;;;;;;5071275;28;20035;-84
2022/02/19 19:45:29;;;;;;;6.88;2.67;;;10.60;82.10;;;;;;5068974;28;20025;-89
2022/02/19 19:47:55;;;;;;;4.30;1.92;;;10.50;82.10;;;;;;5074180;28;20027;-86
2022/02/19 19:50:20;;;;;;;11.85;3.28;;;10.60;82.10;;;;;;5066809;28;20025;-83
2022/02/19 19:52:46;;;;;;;8.93;3.20;;;10.60;82.00;;;;;;5058084;28;20025;-84
2022/02/19 19:55:14;;;;;;;7.65;2.78;;;10.60;82.20;;;;;;5066105;28;20082;-83
2022/02/19 19:57:43;;;;;;;5.45;3.17;;;10.60;82.10;;;;;;5074115;28;20616;-82
2022/02/19 20:00:13;;;;;;;7.28;2.70;;;10.60;82.10;;;;;;5071583;28;20031;-86
2022/02/19 20:02:39;;;;;;;7.45;2.38;;;10.70;82.20;;;;;;5059180;28;20083;-84
2022/02/19 20:05:06;;;;;;;10.27;2.15;;;10.60;82.40;;;;;;5068149;28;20582;-80
2022/02/19 20:07:32;;;;;;;8.07;2.88;;;10.50;82.60;;;;;;5067595;28;20075;-80
2022/02/19 20:09:59;;;;;;;4.65;2.10;;;10.60;82.50;;;;;;5064008;28;20067;-84
2022/02/19 20:12:25;;;;;;;4.03;1.98;;;10.50;82.50;;;;;;5062440;28;20029;-79
2022/02/19 20:14:50;;;;;;;6.68;2.38;;;10.40;83.00;;;;;;5069348;28;20021;-80
2022/02/19 20:17:16;;;;;;;7.40;2.72;;;10.40;82.90;;;;;;5072467;28;20576;-79
2022/02/19 20:19:42;;;;;;;10.20;2.35;;;10.40;83.10;;;;;;5069227;28;20035;-79
2022/02/19 20:22:08;;;;;;;14.50;3.03;;;10.30;82.90;;;;;;5063668;28;20066;-91
2022/02/19 20:24:33;;;;;;;14.40;3.38;;;10.40;82.80;;;;;;5063789;28;20021;-87
2022/02/19 20:27:00;;;;;;;10.70;2.78;;;10.30;83.00;;;;;;5062285;28;20036;-82
2022/02/19 20:29:25;;;;;;;17.48;4.00;;;10.30;83.20;;;;;;5060803;28;20035;-78
2022/02/19 20:31:51;;;;;;;12.93;3.03;;;10.30;83.40;;;;;;5059915;28;20021;-79
2022/02/19 20:34:17;;;;;;;10.63;2.83;;;10.30;83.40;;;;;;5065617;28;20037;-84
2022/02/19 20:36:46;;;;;;;11.32;2.83;;;10.50;83.40;;;;;;5062714;28;20025;-78
2022/02/19 20:39:13;;;;;;;11.35;2.65;;;10.50;83.40;;;;;;5059330;28;20056;-78
2022/02/19 20:41:39;;;;;;;17.73;2.80;;;10.40;83.40;;;;;;5071697;28;20025;-79
2022/02/19 20:44:05;;;;;;;10.52;2.50;;;10.50;83.40;;;;;;5071235;28;20386;-78
2022/02/19 20:46:32;;;;;;;10.27;2.72;;;10.50;83.30;;;;;;5062302;28;20029;-78
2022/02/19 20:48:57;;;;;;;9.70;3.00;;;10.60;83.20;;;;;;5065366;28;20395;-78
2022/02/19 20:51:27;;;;;;;9.88;3.20;;;10.50;83.20;;;;;;5060341;28;20024;-77
2022/02/19 20:53:52;;;;;;;10.07;3.60;;;10.60;83.10;;;;;;5067909;28;20028;-79